createdAt,value
2018-03-04T00:01:24.282Z,3.70
2018-03-04T00:03:51.700Z,3.70
2018-03-04T00:06:19.137Z,3.80
2018-03-04T00:08:46.569Z,3.70
2018-03-04T00:11:14.156Z,3.70
2018-03-04T00:13:41.582Z,3.70
2018-03-04T00:16:09.068Z,3.60
2018-03-04T00:18:36.524Z,3.50
2018-03-04T00:21:03.976Z,3.40
2018-03-04T00:23:31.440Z,3.40
2018-03-04T00:25:58.864Z,3.20
2018-03-04T00:28:26.305Z,3.10
2018-03-04T00:30:53.801Z,3.20
2018-03-04T00:33:21.268Z,3.10
2018-03-04T00:35:48.808Z,3.00
2018-03-04T00:38:16.245Z,3.00
2018-03-04T00:40:43.820Z,2.90
2018-03-04T00:43:11.387Z,2.80
2018-03-04T00:45:38.824Z,2.80
2018-03-04T00:48:06.240Z,2.80
2018-03-04T00:50:33.668Z,2.70
2018-03-04T00:53:01.088Z,2.70
2018-03-04T00:55:28.677Z,2.80
2018-03-04T00:57:56.123Z,2.80
2018-03-04T01:00:23.556Z,2.80
2018-03-04T01:02:51.048Z,2.80
2018-03-04T01:05:18.472Z,2.80
2018-03-04T01:07:45.892Z,2.90
2018-03-04T01:10:13.324Z,2.90
2018-03-04T01:12:40.772Z,2.90
2018-03-04T01:15:08.278Z,2.90
2018-03-04T01:17:35.779Z,3.00
2018-03-04T01:20:03.245Z,3.00
2018-03-04T01:22:30.696Z,3.10
2018-03-04T01:24:58.120Z,3.20
2018-03-04T01:27:25.548Z,3.20
2018-03-04T01:29:53.753Z,3.20
2018-03-04T01:32:21.436Z,3.20
2018-03-04T01:34:48.876Z,3.30
2018-03-04T01:37:16.296Z,3.40
2018-03-04T01:39:44.507Z,3.40
2018-03-04T01:42:12.063Z,3.40
2018-03-04T01:44:39.484Z,3.40
2018-03-04T01:47:07.297Z,3.40
2018-03-04T01:49:34.760Z,3.40
2018-03-04T01:52:02.197Z,3.30
2018-03-04T01:54:29.645Z,3.40
2018-03-04T01:56:57.224Z,3.40
2018-03-04T01:59:24.660Z,3.20
2018-03-04T02:01:52.096Z,3.20
2018-03-04T02:04:19.519Z,3.30
2018-03-04T02:06:47.061Z,3.30
2018-03-04T02:09:14.515Z,3.30
2018-03-04T02:11:41.956Z,3.30
2018-03-04T02:14:09.383Z,3.30
2018-03-04T02:16:36.883Z,3.40
2018-03-04T02:19:04.316Z,3.40
2018-03-04T02:21:31.737Z,3.40
2018-03-04T02:23:59.179Z,3.50
2018-03-04T02:26:26.609Z,3.50
2018-03-04T02:28:54.044Z,3.50
2018-03-04T02:31:21.629Z,3.40
2018-03-04T02:33:49.054Z,3.40
2018-03-04T02:36:16.482Z,3.30
2018-03-04T02:38:43.979Z,3.20
2018-03-04T02:41:11.405Z,3.30
2018-03-04T02:43:38.853Z,3.40
2018-03-04T02:46:06.272Z,3.40
2018-03-04T02:48:33.698Z,3.30
2018-03-04T02:51:01.177Z,3.20
2018-03-04T02:53:28.620Z,3.10
2018-03-04T02:55:56.184Z,3.00
2018-03-04T02:58:23.605Z,2.90
2018-03-04T03:00:51.033Z,3.00
2018-03-04T03:03:18.550Z,3.00
2018-03-04T03:05:46.006Z,3.00
2018-03-04T03:08:13.433Z,3.10
2018-03-04T03:10:40.919Z,3.10
2018-03-04T03:13:08.342Z,3.10
2018-03-04T03:15:35.829Z,3.10
2018-03-04T03:18:03.256Z,3.10
2018-03-04T03:20:30.736Z,3.00
2018-03-04T03:22:58.447Z,3.00
2018-03-04T03:25:25.903Z,2.90
2018-03-04T03:27:54.087Z,2.90
2018-03-04T03:30:21.677Z,2.90
2018-03-04T03:32:49.164Z,2.90
2018-03-04T03:35:16.707Z,3.00
2018-03-04T03:37:44.164Z,2.90
2018-03-04T03:40:11.630Z,3.00
2018-03-04T03:42:39.153Z,2.90
2018-03-04T03:45:06.588Z,2.90
2018-03-04T03:47:34.219Z,3.00
2018-03-04T03:50:01.679Z,3.00
2018-03-04T03:52:29.157Z,3.10
2018-03-04T03:54:56.566Z,3.10
2018-03-04T03:57:24.119Z,3.10
2018-03-04T03:59:51.552Z,3.00
2018-03-04T04:02:18.985Z,3.10
2018-03-04T04:04:46.488Z,3.10
2018-03-04T04:07:13.948Z,3.20
2018-03-04T04:09:41.393Z,3.10
2018-03-04T04:12:08.820Z,3.10
2018-03-04T04:14:36.251Z,3.00
2018-03-04T04:17:03.773Z,3.00
2018-03-04T04:19:31.210Z,3.00
2018-03-04T04:21:58.636Z,2.90
2018-03-04T04:24:26.064Z,2.80
2018-03-04T04:26:53.595Z,2.90
2018-03-04T04:29:21.025Z,2.90
2018-03-04T04:31:48.461Z,3.00
2018-03-04T04:34:15.884Z,3.00
2018-03-04T04:36:43.425Z,3.00
2018-03-04T04:39:10.848Z,3.10
2018-03-04T04:41:38.288Z,3.10
2018-03-04T04:44:05.705Z,3.10
2018-03-04T04:46:33.157Z,3.00
2018-03-04T04:49:00.569Z,3.00
2018-03-04T04:51:28.960Z,3.10
2018-03-04T04:53:56.539Z,3.10
2018-03-04T04:56:23.972Z,3.20
2018-03-04T04:58:51.448Z,3.20
2018-03-04T05:01:18.884Z,3.20
2018-03-04T05:03:46.304Z,3.20
2018-03-04T05:06:13.816Z,3.20
2018-03-04T05:08:41.272Z,3.10
2018-03-04T05:11:08.707Z,3.10
2018-03-04T05:13:36.188Z,3.20
2018-03-04T05:16:03.663Z,3.20
2018-03-04T05:18:31.083Z,3.20
2018-03-04T05:20:58.559Z,3.20
2018-03-04T05:23:25.988Z,3.30
2018-03-04T05:25:53.415Z,3.30
2018-03-04T05:28:20.923Z,3.20
2018-03-04T05:30:48.379Z,3.20
2018-03-04T05:33:15.816Z,3.30
2018-03-04T05:35:43.300Z,3.30
2018-03-04T05:38:10.749Z,3.20
2018-03-04T05:40:38.172Z,3.30
2018-03-04T05:43:05.662Z,3.20
2018-03-04T05:45:33.093Z,3.10
2018-03-04T05:48:00.521Z,3.20
2018-03-04T05:50:28.040Z,3.10
2018-03-04T05:52:55.464Z,3.10
2018-03-04T05:55:23.743Z,3.20
2018-03-04T05:57:51.219Z,3.20
2018-03-04T06:00:18.692Z,3.20
2018-03-04T06:02:46.136Z,3.30
2018-03-04T06:05:13.571Z,3.30
2018-03-04T06:07:41.021Z,3.30
2018-03-04T06:10:09.403Z,3.30
2018-03-04T06:12:36.984Z,3.30
2018-03-04T06:15:04.426Z,3.40
2018-03-04T06:17:31.855Z,3.40
2018-03-04T06:19:59.352Z,3.50
2018-03-04T06:22:26.808Z,3.50
2018-03-04T06:24:54.227Z,3.50
2018-03-04T06:27:21.666Z,3.50
2018-03-04T06:29:49.095Z,3.60
2018-03-04T06:32:16.541Z,3.70
2018-03-04T06:34:44.091Z,3.70
2018-03-04T06:37:11.544Z,3.70
2018-03-04T06:39:39.000Z,3.70
2018-03-04T06:42:06.427Z,3.60
2018-03-04T06:44:33.861Z,3.50
2018-03-04T06:47:01.368Z,3.30
2018-03-04T06:49:28.788Z,3.20
2018-03-04T06:51:56.230Z,3.20
2018-03-04T06:54:23.648Z,3.20
2018-03-04T06:56:51.196Z,3.10
2018-03-04T06:59:18.619Z,3.10
2018-03-04T07:01:46.050Z,3.20
2018-03-04T07:04:13.484Z,3.20
2018-03-04T07:06:40.918Z,3.20
2018-03-04T07:09:08.352Z,3.30
2018-03-04T07:11:35.940Z,3.30
2018-03-04T07:14:03.392Z,3.30
2018-03-04T07:16:30.816Z,3.40
2018-03-04T07:18:58.299Z,3.50
2018-03-04T07:21:25.752Z,3.50
2018-03-04T07:23:53.187Z,3.60
2018-03-04T07:26:20.668Z,3.50
2018-03-04T07:28:48.108Z,3.60
2018-03-04T07:31:16.296Z,3.50
2018-03-04T07:33:43.720Z,3.50
2018-03-04T07:36:11.411Z,3.40
2018-03-04T07:38:38.838Z,3.40
2018-03-04T07:41:06.328Z,3.60
2018-03-04T07:43:33.755Z,3.70
2018-03-04T07:46:01.236Z,3.70
2018-03-04T07:48:28.703Z,3.70
2018-03-04T07:50:56.138Z,3.70
2018-03-04T07:53:23.607Z,3.80
2018-03-04T07:55:51.045Z,3.80
2018-03-04T07:58:18.469Z,3.80
2018-03-04T08:00:45.982Z,3.80
2018-03-04T08:03:13.408Z,3.70
2018-03-04T08:05:40.838Z,3.70
2018-03-04T08:08:08.265Z,3.80
2018-03-04T08:10:35.698Z,3.80
2018-03-04T08:13:03.184Z,3.80
2018-03-04T08:15:30.616Z,3.80
2018-03-04T08:17:58.066Z,3.80
2018-03-04T08:20:25.537Z,3.80
2018-03-04T08:22:52.977Z,3.90
2018-03-04T08:25:36.344Z,3.90
2018-03-04T08:28:15.590Z,3.90
2018-03-04T08:30:43.071Z,4.00
2018-03-04T08:33:10.507Z,4.10
2018-03-04T08:35:38.016Z,4.20
2018-03-04T08:38:05.464Z,4.30
2018-03-04T08:40:32.932Z,4.40
2018-03-04T08:43:00.688Z,4.40
2018-03-04T08:45:28.125Z,4.50
2018-03-04T08:47:55.610Z,4.60
2018-03-04T08:50:23.037Z,4.60
2018-03-04T08:52:50.459Z,4.70
2018-03-04T08:55:17.968Z,4.70
2018-03-04T08:57:45.400Z,4.80
2018-03-04T09:00:12.832Z,4.90
2018-03-04T09:02:40.315Z,5.10
2018-03-04T09:05:07.767Z,5.30
2018-03-04T09:07:35.196Z,5.30
2018-03-04T09:10:02.711Z,5.40
2018-03-04T09:12:30.135Z,5.60
2018-03-04T09:14:57.595Z,5.70
2018-03-04T09:17:25.045Z,5.80
2018-03-04T09:19:52.506Z,5.90
2018-03-04T09:22:19.992Z,6.00
2018-03-04T09:24:47.448Z,5.90
2018-03-04T09:27:14.895Z,5.90
2018-03-04T09:29:42.360Z,6.00
2018-03-04T09:32:09.999Z,6.00
2018-03-04T09:34:37.428Z,6.00
2018-03-04T09:37:05.856Z,6.60
2018-03-04T09:39:33.408Z,6.60
2018-03-04T09:42:00.851Z,6.80
2018-03-04T09:44:28.287Z,6.90
2018-03-04T09:46:55.738Z,7.00
2018-03-04T09:49:23.201Z,7.20
2018-03-04T09:51:50.693Z,7.40
2018-03-04T09:54:18.127Z,7.60
2018-03-04T09:56:45.658Z,7.90
2018-03-04T09:59:13.236Z,8.10
2018-03-04T10:01:40.754Z,8.30
2018-03-04T10:04:08.200Z,8.50
2018-03-04T10:06:35.736Z,8.80
2018-03-04T10:09:03.168Z,8.90
2018-03-04T10:11:30.620Z,9.00
2018-03-04T10:13:58.056Z,9.20
2018-03-04T10:16:25.560Z,9.30
2018-03-04T10:18:52.996Z,9.40
2018-03-04T10:21:20.432Z,9.50
2018-03-04T10:23:47.907Z,9.70
2018-03-04T10:26:15.336Z,9.70
2018-03-04T10:28:42.777Z,9.90
2018-03-04T10:31:11.228Z,10.10
2018-03-04T10:33:38.868Z,10.00
2018-03-04T10:36:06.396Z,10.00
2018-03-04T10:38:33.897Z,9.80
2018-03-04T10:41:01.340Z,9.80
2018-03-04T10:43:28.768Z,9.80
2018-03-04T10:45:56.208Z,9.80
2018-03-04T10:48:23.731Z,9.80
2018-03-04T10:50:51.494Z,9.70
2018-03-04T10:53:19.251Z,9.70
2018-03-04T10:55:46.705Z,9.80
2018-03-04T10:58:14.124Z,9.80
2018-03-04T11:00:48.110Z,9.90
2018-03-04T11:03:15.761Z,9.80
2018-03-04T11:05:43.203Z,9.80
2018-03-04T11:08:10.648Z,9.90
2018-03-04T11:10:38.211Z,10.10
2018-03-04T11:13:05.840Z,10.30
2018-03-04T11:15:33.324Z,10.40
2018-03-04T11:18:00.880Z,10.60
2018-03-04T11:20:28.521Z,10.70
2018-03-04T11:22:56.099Z,10.80
2018-03-04T11:25:23.860Z,10.80
2018-03-04T11:27:51.300Z,11.00
2018-03-04T11:30:18.772Z,11.10
2018-03-04T11:32:46.232Z,11.30
2018-03-04T11:35:13.660Z,11.40
2018-03-04T11:37:41.104Z,11.50
2018-03-04T11:40:08.545Z,11.60
2018-03-04T11:42:36.885Z,11.90
2018-03-04T11:45:04.353Z,11.80
2018-03-04T11:47:31.777Z,12.10
2018-03-04T11:49:59.268Z,12.10
2018-03-04T11:52:26.691Z,12.10
2018-03-04T11:54:54.133Z,12.30
2018-03-04T11:57:21.585Z,12.50
2018-03-04T11:59:49.192Z,12.60
2018-03-04T12:02:16.628Z,12.90
2018-03-04T12:04:44.059Z,13.00
2018-03-04T12:07:11.484Z,13.40
2018-03-04T12:09:39.031Z,13.60
2018-03-04T12:12:06.764Z,14.10
2018-03-04T12:14:34.384Z,14.10
2018-03-04T12:17:02.776Z,15.00
2018-03-04T12:19:30.209Z,14.90
2018-03-04T12:21:58.413Z,15.30
2018-03-04T12:24:25.840Z,15.30
2018-03-04T12:26:53.280Z,15.50
2018-03-04T12:29:20.707Z,15.70
2018-03-04T12:31:48.159Z,16.10
2018-03-04T12:34:15.600Z,16.40
2018-03-04T12:36:43.046Z,16.50
2018-03-04T12:39:10.468Z,16.40
2018-03-04T12:41:39.049Z,16.70
2018-03-04T12:44:06.442Z,16.60
2018-03-04T12:46:33.889Z,16.90
2018-03-04T12:49:02.314Z,16.50
2018-03-04T12:51:30.060Z,16.50
2018-03-04T12:53:57.512Z,16.30
2018-03-04T12:56:24.940Z,16.30
2018-03-04T12:58:52.384Z,16.50
2018-03-04T13:01:19.887Z,16.80
2018-03-04T13:03:47.362Z,16.90
2018-03-04T13:06:15.044Z,17.00
2018-03-04T13:08:42.496Z,16.80
2018-03-04T13:11:10.692Z,16.50
2018-03-04T13:13:38.141Z,16.50
2018-03-04T13:16:05.852Z,16.20
2018-03-04T13:18:33.479Z,16.20
2018-03-04T13:21:02.650Z,15.80
2018-03-04T13:23:30.068Z,15.70
2018-03-04T13:25:57.508Z,15.80
2018-03-04T13:28:24.963Z,15.80
2018-03-04T13:30:52.416Z,15.80
2018-03-04T13:33:19.829Z,15.70
2018-03-04T13:35:47.289Z,15.60
2018-03-04T13:38:14.716Z,15.40
2018-03-04T13:40:42.176Z,15.40
2018-03-04T13:43:09.600Z,15.10
2018-03-04T13:45:37.044Z,15.00
2018-03-04T13:48:04.484Z,15.20
2018-03-04T13:50:32.020Z,15.40
2018-03-04T13:53:00.252Z,15.50
2018-03-04T13:55:27.804Z,15.50
2018-03-04T13:57:55.371Z,15.80
2018-03-04T14:00:22.796Z,15.90
2018-03-04T14:02:50.275Z,16.10
2018-03-04T14:05:17.708Z,16.30
2018-03-04T14:07:45.185Z,16.30
2018-03-04T14:10:12.595Z,16.00
2018-03-04T14:12:40.122Z,15.90
2018-03-04T14:15:07.560Z,16.10
2018-03-04T14:17:34.992Z,15.90
2018-03-04T14:20:02.426Z,15.70
2018-03-04T14:22:29.936Z,15.60
2018-03-04T14:24:57.388Z,15.20
2018-03-04T14:27:25.545Z,14.80
2018-03-04T14:29:53.037Z,14.70
2018-03-04T14:32:20.672Z,14.50
2018-03-04T14:34:48.127Z,14.40
2018-03-04T14:37:15.592Z,14.40
2018-03-04T14:39:43.236Z,14.40
2018-03-04T14:42:10.803Z,14.40
2018-03-04T14:44:38.241Z,14.30
2018-03-04T14:47:05.728Z,14.10
2018-03-04T14:49:33.169Z,13.90
2018-03-04T14:52:00.607Z,13.80
2018-03-04T14:54:28.065Z,13.70
2018-03-04T14:56:55.488Z,13.60
2018-03-04T14:59:23.000Z,13.60
2018-03-04T15:01:50.439Z,13.30
2018-03-04T15:04:17.868Z,13.20
2018-03-04T15:06:45.315Z,13.00
2018-03-04T15:09:12.832Z,12.90
2018-03-04T15:11:40.292Z,12.90
2018-03-04T15:14:07.744Z,12.80
2018-03-04T15:16:35.192Z,12.80
2018-03-04T15:19:02.731Z,12.60
2018-03-04T15:21:30.336Z,12.60
2018-03-04T15:23:57.868Z,12.50
2018-03-04T15:26:25.500Z,12.50
2018-03-04T15:28:53.008Z,12.60
2018-03-04T15:31:20.445Z,12.60
2018-03-04T15:33:47.946Z,12.60
2018-03-04T15:36:15.469Z,12.60
2018-03-04T15:38:42.920Z,12.50
2018-03-04T15:41:10.371Z,12.50
2018-03-04T15:43:38.008Z,12.50
2018-03-04T15:46:05.463Z,12.40
2018-03-04T15:48:33.859Z,12.30
2018-03-04T15:51:01.329Z,12.20
2018-03-04T15:53:28.884Z,12.20
2018-03-04T15:55:56.329Z,12.10
2018-03-04T15:58:23.781Z,12.10
2018-03-04T16:00:51.212Z,12.00
2018-03-04T16:03:18.708Z,11.90
2018-03-04T16:05:46.185Z,11.80
2018-03-04T16:08:13.732Z,11.80
2018-03-04T16:10:41.376Z,11.70
2018-03-04T16:13:08.807Z,11.70
2018-03-04T16:15:36.245Z,11.70
2018-03-04T16:18:03.709Z,11.70
2018-03-04T16:20:31.203Z,11.80
2018-03-04T16:22:58.832Z,11.80
2018-03-04T16:25:26.625Z,11.80
2018-03-04T16:27:54.049Z,11.70
2018-03-04T16:30:22.261Z,11.50
2018-03-04T16:32:49.715Z,11.50
2018-03-04T16:35:17.480Z,11.50
2018-03-04T16:37:44.956Z,11.50
2018-03-04T16:40:12.583Z,11.50
2018-03-04T16:42:40.104Z,11.50
2018-03-04T16:45:07.621Z,11.30
2018-03-04T16:47:35.380Z,11.20
2018-03-04T16:50:02.836Z,11.20
2018-03-04T16:52:30.284Z,11.10
2018-03-04T16:54:57.720Z,11.10
2018-03-04T16:57:25.156Z,11.00
2018-03-04T16:59:52.592Z,11.00
2018-03-04T17:02:20.037Z,11.00
2018-03-04T17:04:47.540Z,10.90
2018-03-04T17:07:15.034Z,10.90
2018-03-04T17:09:42.788Z,10.80
2018-03-04T17:12:10.248Z,10.80
2018-03-04T17:14:38.208Z,10.90
2018-03-04T17:17:05.776Z,10.90
2018-03-04T17:19:33.531Z,11.00
2018-03-04T17:22:01.168Z,10.90
2018-03-04T17:24:28.756Z,10.90
2018-03-04T17:26:56.204Z,10.80
2018-03-04T17:29:23.631Z,10.70
2018-03-04T17:31:51.127Z,10.50
2018-03-04T17:34:18.573Z,10.40
2018-03-04T17:36:46.033Z,10.30
2018-03-04T17:39:13.680Z,10.30
2018-03-04T17:41:41.256Z,10.30
2018-03-04T17:44:08.711Z,10.30
2018-03-04T17:46:36.163Z,10.20
2018-03-04T17:49:03.635Z,10.20
2018-03-04T17:51:31.090Z,10.00
2018-03-04T17:53:58.520Z,10.00
2018-03-04T17:56:26.013Z,9.90
2018-03-04T17:58:53.727Z,9.80
2018-03-04T18:01:21.176Z,9.80
2018-03-04T18:03:48.613Z,9.80
2018-03-04T18:06:16.123Z,9.70
2018-03-04T18:08:43.816Z,9.70
2018-03-04T18:11:11.193Z,9.70
2018-03-04T18:13:38.800Z,9.60
2018-03-04T18:16:06.229Z,9.50
2018-03-04T18:18:33.660Z,9.40
2018-03-04T18:21:01.097Z,9.30
2018-03-04T18:23:28.533Z,9.20
2018-03-04T18:25:56.188Z,9.00
2018-03-04T18:28:23.624Z,9.00
2018-03-04T18:30:51.296Z,9.00
2018-03-04T18:33:18.757Z,9.00
2018-03-04T18:35:46.180Z,9.00
2018-03-04T18:38:13.620Z,9.00
2018-03-04T18:40:41.044Z,9.10
2018-03-04T18:43:08.580Z,9.00
2018-03-04T18:45:36.008Z,9.00
2018-03-04T18:48:03.439Z,9.00
2018-03-04T18:50:31.644Z,8.80
2018-03-04T18:52:59.210Z,8.80
2018-03-04T18:55:26.744Z,8.80
2018-03-04T18:57:54.442Z,8.60
2018-03-04T19:00:22.004Z,8.60
2018-03-04T19:02:49.464Z,8.60
2018-03-04T19:05:16.920Z,8.60
2018-03-04T19:07:44.376Z,8.50
2018-03-04T19:10:11.837Z,8.50
2018-03-04T19:12:39.295Z,8.50
2018-03-04T19:15:06.930Z,8.60
2018-03-04T19:17:34.380Z,8.60
2018-03-04T19:20:01.837Z,8.60
2018-03-04T19:22:29.288Z,8.60
2018-03-04T19:24:56.871Z,8.60
2018-03-04T19:27:24.303Z,8.70
2018-03-04T19:29:51.728Z,8.70
2018-03-04T19:32:19.259Z,8.70
2018-03-04T19:34:46.871Z,8.60
2018-03-04T19:37:14.464Z,8.60
2018-03-04T19:39:41.928Z,8.60
2018-03-04T19:42:09.372Z,8.70
2018-03-04T19:44:36.794Z,8.70
2018-03-04T19:47:04.282Z,8.70
2018-03-04T19:49:31.704Z,8.70
2018-03-04T19:51:59.202Z,8.70
2018-03-04T19:54:26.624Z,8.60
2018-03-04T19:56:54.078Z,8.60
2018-03-04T19:59:21.764Z,8.60
2018-03-04T20:01:49.212Z,8.60
2018-03-04T20:04:16.790Z,8.60
2018-03-04T20:06:44.240Z,8.60
2018-03-04T20:09:11.664Z,8.60
2018-03-04T20:11:39.163Z,8.60
2018-03-04T20:14:06.608Z,8.70
2018-03-04T20:16:34.044Z,8.70
2018-03-04T20:19:01.528Z,8.80
2018-03-04T20:21:28.984Z,8.80
2018-03-04T20:23:56.408Z,8.80
2018-03-04T20:26:23.956Z,8.80
2018-03-04T20:28:51.352Z,8.80
2018-03-04T20:31:18.788Z,8.80
2018-03-04T20:33:46.264Z,8.80
2018-03-04T20:36:13.716Z,8.80
2018-03-04T20:38:41.176Z,8.90
2018-03-04T20:41:08.608Z,8.90
2018-03-04T20:43:36.063Z,9.00
2018-03-04T20:46:03.488Z,9.00
2018-03-04T20:48:31.000Z,9.00
2018-03-04T20:50:58.426Z,9.10
2018-03-04T20:53:25.865Z,9.10
2018-03-04T20:55:53.384Z,9.10
2018-03-04T20:58:20.828Z,9.10
2018-03-04T21:00:48.292Z,9.10
2018-03-04T21:03:15.741Z,9.00
2018-03-04T21:05:43.160Z,9.00
2018-03-04T21:08:10.600Z,9.00
2018-03-04T21:10:38.110Z,8.90
2018-03-04T21:13:05.561Z,8.90
2018-03-04T21:15:32.999Z,8.70
2018-03-04T21:18:00.432Z,8.70
2018-03-04T21:20:27.984Z,8.70
2018-03-04T21:22:55.595Z,8.60
2018-03-04T21:25:23.011Z,8.60
2018-03-04T21:27:51.204Z,8.70
2018-03-04T21:30:18.636Z,8.70
2018-03-04T21:32:46.065Z,8.60
2018-03-04T21:35:13.505Z,8.60
2018-03-04T21:37:41.048Z,8.60
2018-03-04T21:40:08.501Z,8.60
2018-03-04T21:42:35.920Z,8.50
2018-03-04T21:45:03.442Z,8.50
2018-03-04T21:47:30.881Z,8.60
2018-03-04T21:49:58.321Z,8.60
2018-03-04T21:52:25.746Z,8.50
2018-03-04T21:54:53.184Z,8.50
2018-03-04T21:57:20.627Z,8.50
2018-03-04T21:59:48.055Z,8.30
2018-03-04T22:02:15.528Z,8.30
2018-03-04T22:04:43.072Z,8.30
2018-03-04T22:07:10.941Z,8.10
2018-03-04T22:09:38.592Z,7.90
2018-03-04T22:12:06.032Z,7.80
2018-03-04T22:14:33.465Z,7.80
2018-03-04T22:17:00.906Z,7.80
2018-03-04T22:19:28.352Z,7.80
2018-03-04T22:21:55.807Z,7.80
2018-03-04T22:24:23.336Z,7.90
2018-03-04T22:26:50.768Z,7.90
2018-03-04T22:29:18.206Z,7.90
2018-03-04T22:31:45.700Z,7.80
2018-03-04T22:34:13.172Z,7.70
2018-03-04T22:36:40.797Z,7.70
2018-03-04T22:39:08.293Z,7.70
2018-03-04T22:41:35.784Z,7.70
2018-03-04T22:44:03.288Z,7.70
2018-03-04T22:46:31.052Z,7.70
2018-03-04T22:48:58.491Z,7.70
2018-03-04T22:51:25.964Z,7.70
2018-03-04T22:53:53.624Z,7.70
2018-03-04T22:56:21.186Z,7.70
2018-03-04T22:58:48.947Z,7.60
2018-03-04T23:01:16.485Z,7.60
2018-03-04T23:03:44.087Z,7.60
2018-03-04T23:06:12.556Z,7.60
2018-03-04T23:08:39.999Z,7.60
2018-03-04T23:11:07.471Z,7.60
2018-03-04T23:13:34.929Z,7.60
2018-03-04T23:16:02.684Z,7.50
2018-03-04T23:18:30.447Z,7.50
2018-03-04T23:20:57.903Z,7.50
2018-03-04T23:23:25.537Z,7.40
2018-03-04T23:25:53.000Z,7.30
2018-03-04T23:28:23.056Z,7.40
2018-03-04T23:30:50.800Z,7.50
2018-03-04T23:33:18.248Z,7.50
2018-03-04T23:35:45.888Z,7.40
2018-03-04T23:38:13.479Z,7.40
2018-03-04T23:40:40.925Z,7.40
2018-03-04T23:43:08.395Z,7.40
2018-03-04T23:45:35.853Z,7.30
2018-03-04T23:48:03.477Z,7.30
2018-03-04T23:50:30.988Z,7.30
2018-03-04T23:52:58.428Z,7.20
2018-03-04T23:55:25.884Z,7.10
2018-03-04T23:57:53.332Z,7.10
